sensor_id;sensor_type;location;lat;lon;timestamp;temperature;humidity
62573;DHT22;48626;51.678;5.806;2023-07-20T00:01:13;19.10;99.90
62573;DHT22;48626;51.678;5.806;2023-07-20T00:03:38;19.10;99.90
62573;DHT22;48626;51.678;5.806;2023-07-20T00:06:04;19.10;99.90
62573;DHT22;48626;51.678;5.806;2023-07-20T00:08:30;19.10;99.90
62573;DHT22;48626;51.678;5.806;2023-07-20T00:10:56;19.10;99.90
62573;DHT22;48626;51.678;5.806;2023-07-20T00:13:22;19.10;99.90
62573;DHT22;48626;51.678;5.806;2023-07-20T00:15:47;19.10;99.90
62573;DHT22;48626;51.678;5.806;2023-07-20T00:18:13;19.00;99.90
62573;DHT22;48626;51.678;5.806;2023-07-20T00:20:39;18.90;99.90
62573;DHT22;48626;51.678;5.806;2023-07-20T00:23:05;18.70;99.90
62573;DHT22;48626;51.678;5.806;2023-07-20T00:25:31;18.60;99.90
62573;DHT22;48626;51.678;5.806;2023-07-20T00:27:56;18.50;99.90
62573;DHT22;48626;51.678;5.806;2023-07-20T00:30:22;18.40;99.90
62573;DHT22;48626;51.678;5.806;2023-07-20T00:32:48;18.40;99.90
62573;DHT22;48626;51.678;5.806;2023-07-20T00:35:13;18.30;99.90
62573;DHT22;48626;51.678;5.806;2023-07-20T00:37:39;18.30;99.90
62573;DHT22;48626;51.678;5.806;2023-07-20T00:40:06;18.30;99.90
62573;DHT22;48626;51.678;5.806;2023-07-20T00:42:33;18.30;99.90
62573;DHT22;48626;51.678;5.806;2023-07-20T00:44:59;18.30;99.90
62573;DHT22;48626;51.678;5.806;2023-07-20T00:47:26;18.30;99.90
62573;DHT22;48626;51.678;5.806;2023-07-20T00:49:52;18.20;99.90
62573;DHT22;48626;51.678;5.806;2023-07-20T00:52:21;18.20;99.90
62573;DHT22;48626;51.678;5.806;2023-07-20T00:54:47;18.20;99.90
62573;DHT22;48626;51.678;5.806;2023-07-20T00:57:16;18.20;99.90
62573;DHT22;48626;51.678;5.806;2023-07-20T00:59:43;18.20;99.90
62573;DHT22;48626;51.678;5.806;2023-07-20T01:02:09;18.10;99.90
62573;DHT22;48626;51.678;5.806;2023-07-20T01:04:35;18.10;99.90
62573;DHT22;48626;51.678;5.806;2023-07-20T01:09:57;18.10;99.90
62573;DHT22;48626;51.678;5.806;2023-07-20T01:12:43;18.10;99.90
62573;DHT22;48626;51.678;5.806;2023-07-20T01:15:12;18.10;99.90
62573;DHT22;48626;51.678;5.806;2023-07-20T01:17:38;18.00;99.90
62573;DHT22;48626;51.678;5.806;2023-07-20T01:20:04;18.00;99.90
62573;DHT22;48626;51.678;5.806;2023-07-20T01:22:58;17.90;99.90
62573;DHT22;48626;51.678;5.806;2023-07-20T01:33:47;17.70;99.90
62573;DHT22;48626;51.678;5.806;2023-07-20T01:36:14;17.70;99.90
62573;DHT22;48626;51.678;5.806;2023-07-20T01:38:42;17.70;99.90
62573;DHT22;48626;51.678;5.806;2023-07-20T01:41:08;17.70;99.90
62573;DHT22;48626;51.678;5.806;2023-07-20T01:43:34;17.70;99.90
62573;DHT22;48626;51.678;5.806;2023-07-20T01:46:00;17.60;99.90
62573;DHT22;48626;51.678;5.806;2023-07-20T01:48:25;17.60;99.90
62573;DHT22;48626;51.678;5.806;2023-07-20T01:50:51;17.40;99.90
62573;DHT22;48626;51.678;5.806;2023-07-20T01:53:17;17.40;99.90
62573;DHT22;48626;51.678;5.806;2023-07-20T01:55:43;17.30;99.90
62573;DHT22;48626;51.678;5.806;2023-07-20T01:58:08;17.30;99.90
62573;DHT22;48626;51.678;5.806;2023-07-20T02:00:36;17.20;99.90
62573;DHT22;48626;51.678;5.806;2023-07-20T02:03:02;17.20;99.90
62573;DHT22;48626;51.678;5.806;2023-07-20T02:05:27;17.30;99.90
62573;DHT22;48626;51.678;5.806;2023-07-20T02:07:53;17.30;99.90
62573;DHT22;48626;51.678;5.806;2023-07-20T02:10:19;17.30;99.90
62573;DHT22;48626;51.678;5.806;2023-07-20T02:12:44;17.30;99.90
62573;DHT22;48626;51.678;5.806;2023-07-20T02:15:10;17.40;99.90
62573;DHT22;48626;51.678;5.806;2023-07-20T02:17:36;17.40;99.90
62573;DHT22;48626;51.678;5.806;2023-07-20T02:20:02;17.40;99.90
62573;DHT22;48626;51.678;5.806;2023-07-20T02:22:28;17.50;99.90
62573;DHT22;48626;51.678;5.806;2023-07-20T02:24:54;17.50;99.90
62573;DHT22;48626;51.678;5.806;2023-07-20T02:27:19;17.50;99.90
62573;DHT22;48626;51.678;5.806;2023-07-20T02:29:45;17.50;99.90
62573;DHT22;48626;51.678;5.806;2023-07-20T02:32:11;17.50;99.90
62573;DHT22;48626;51.678;5.806;2023-07-20T02:34:36;17.40;99.90
62573;DHT22;48626;51.678;5.806;2023-07-20T02:37:02;17.30;99.90
62573;DHT22;48626;51.678;5.806;2023-07-20T02:39:28;17.20;99.90
62573;DHT22;48626;51.678;5.806;2023-07-20T02:41:54;17.10;99.90
62573;DHT22;48626;51.678;5.806;2023-07-20T02:44:20;17.10;99.90
62573;DHT22;48626;51.678;5.806;2023-07-20T02:46:45;17.00;99.90
62573;DHT22;48626;51.678;5.806;2023-07-20T02:49:11;17.00;99.90
62573;DHT22;48626;51.678;5.806;2023-07-20T02:51:37;17.00;99.90
62573;DHT22;48626;51.678;5.806;2023-07-20T02:54:02;17.00;99.90
62573;DHT22;48626;51.678;5.806;2023-07-20T02:56:29;17.10;99.90
62573;DHT22;48626;51.678;5.806;2023-07-20T02:58:55;17.20;99.90
62573;DHT22;48626;51.678;5.806;2023-07-20T03:01:20;17.30;99.90
62573;DHT22;48626;51.678;5.806;2023-07-20T03:03:46;17.30;99.90
62573;DHT22;48626;51.678;5.806;2023-07-20T03:06:15;17.30;99.90
62573;DHT22;48626;51.678;5.806;2023-07-20T03:08:42;17.30;99.90
62573;DHT22;48626;51.678;5.806;2023-07-20T03:11:16;17.30;99.90
62573;DHT22;48626;51.678;5.806;2023-07-20T03:13:42;17.20;99.90
62573;DHT22;48626;51.678;5.806;2023-07-20T03:16:09;17.20;99.90
62573;DHT22;48626;51.678;5.806;2023-07-20T03:18:37;17.10;99.90
62573;DHT22;48626;51.678;5.806;2023-07-20T03:21:04;17.00;99.90
62573;DHT22;48626;51.678;5.806;2023-07-20T03:23:30;16.90;99.90
62573;DHT22;48626;51.678;5.806;2023-07-20T03:25:56;16.80;99.90
62573;DHT22;48626;51.678;5.806;2023-07-20T03:28:21;16.70;99.90
62573;DHT22;48626;51.678;5.806;2023-07-20T03:30:53;16.60;99.90
62573;DHT22;48626;51.678;5.806;2023-07-20T03:33:20;16.60;99.90
62573;DHT22;48626;51.678;5.806;2023-07-20T03:35:46;16.60;99.90
62573;DHT22;48626;51.678;5.806;2023-07-20T03:38:11;16.60;99.90
62573;DHT22;48626;51.678;5.806;2023-07-20T03:40:37;16.60;99.90
62573;DHT22;48626;51.678;5.806;2023-07-20T03:43:03;16.50;99.90
62573;DHT22;48626;51.678;5.806;2023-07-20T03:45:28;16.50;99.90
62573;DHT22;48626;51.678;5.806;2023-07-20T03:47:54;16.40;99.90
62573;DHT22;48626;51.678;5.806;2023-07-20T03:50:19;16.30;99.90
62573;DHT22;48626;51.678;5.806;2023-07-20T03:52:45;16.30;99.90
62573;DHT22;48626;51.678;5.806;2023-07-20T03:55:11;16.20;99.90
62573;DHT22;48626;51.678;5.806;2023-07-20T03:57:36;16.20;99.90
62573;DHT22;48626;51.678;5.806;2023-07-20T04:00:02;16.10;99.90
62573;DHT22;48626;51.678;5.806;2023-07-20T04:02:32;16.10;99.90
62573;DHT22;48626;51.678;5.806;2023-07-20T04:04:57;16.10;99.90
62573;DHT22;48626;51.678;5.806;2023-07-20T04:07:23;16.10;99.90
62573;DHT22;48626;51.678;5.806;2023-07-20T04:09:49;16.00;99.90
62573;DHT22;48626;51.678;5.806;2023-07-20T04:12:14;16.10;99.90
62573;DHT22;48626;51.678;5.806;2023-07-20T04:14:40;16.00;99.90
62573;DHT22;48626;51.678;5.806;2023-07-20T04:17:05;16.00;99.90
62573;DHT22;48626;51.678;5.806;2023-07-20T04:19:31;16.00;99.90
62573;DHT22;48626;51.678;5.806;2023-07-20T04:21:56;16.00;99.90
62573;DHT22;48626;51.678;5.806;2023-07-20T04:24:22;16.00;99.90
62573;DHT22;48626;51.678;5.806;2023-07-20T04:26:48;16.00;99.90
62573;DHT22;48626;51.678;5.806;2023-07-20T04:29:13;15.90;99.90
62573;DHT22;48626;51.678;5.806;2023-07-20T04:31:39;15.90;99.90
62573;DHT22;48626;51.678;5.806;2023-07-20T04:34:04;15.90;99.90
62573;DHT22;48626;51.678;5.806;2023-07-20T04:36:30;15.90;99.90
62573;DHT22;48626;51.678;5.806;2023-07-20T04:38:56;15.90;99.90
62573;DHT22;48626;51.678;5.806;2023-07-20T04:41:21;15.90;99.90
62573;DHT22;48626;51.678;5.806;2023-07-20T04:43:47;15.90;99.90
62573;DHT22;48626;51.678;5.806;2023-07-20T04:46:13;15.90;99.90
62573;DHT22;48626;51.678;5.806;2023-07-20T04:48:38;15.90;99.90
62573;DHT22;48626;51.678;5.806;2023-07-20T04:51:06;15.90;99.90
62573;DHT22;48626;51.678;5.806;2023-07-20T04:53:31;15.90;99.90
62573;DHT22;48626;51.678;5.806;2023-07-20T04:55:57;16.00;99.90
62573;DHT22;48626;51.678;5.806;2023-07-20T04:58:23;15.90;99.90
62573;DHT22;48626;51.678;5.806;2023-07-20T05:00:49;16.00;99.90
62573;DHT22;48626;51.678;5.806;2023-07-20T05:03:15;16.00;99.90
62573;DHT22;48626;51.678;5.806;2023-07-20T05:05:40;16.00;99.90
62573;DHT22;48626;51.678;5.806;2023-07-20T05:08:06;16.10;99.90
62573;DHT22;48626;51.678;5.806;2023-07-20T05:10:32;16.10;99.90
62573;DHT22;48626;51.678;5.806;2023-07-20T05:12:58;16.20;99.90
62573;DHT22;48626;51.678;5.806;2023-07-20T05:15:24;16.40;99.90
62573;DHT22;48626;51.678;5.806;2023-07-20T05:17:50;16.60;99.90
62573;DHT22;48626;51.678;5.806;2023-07-20T05:20:16;16.80;99.90
62573;DHT22;48626;51.678;5.806;2023-07-20T05:22:42;16.90;99.90
62573;DHT22;48626;51.678;5.806;2023-07-20T05:25:09;16.90;99.90
62573;DHT22;48626;51.678;5.806;2023-07-20T05:27:39;16.80;99.90
62573;DHT22;48626;51.678;5.806;2023-07-20T05:30:06;16.70;99.90
62573;DHT22;48626;51.678;5.806;2023-07-20T05:32:33;16.60;99.90
62573;DHT22;48626;51.678;5.806;2023-07-20T05:34:58;16.60;99.90
62573;DHT22;48626;51.678;5.806;2023-07-20T05:37:24;16.60;99.90
62573;DHT22;48626;51.678;5.806;2023-07-20T05:39:50;16.60;99.90
62573;DHT22;48626;51.678;5.806;2023-07-20T05:42:16;16.80;99.90
62573;DHT22;48626;51.678;5.806;2023-07-20T05:44:41;17.00;99.90
62573;DHT22;48626;51.678;5.806;2023-07-20T05:47:07;17.10;99.90
62573;DHT22;48626;51.678;5.806;2023-07-20T05:49:33;17.30;99.90
62573;DHT22;48626;51.678;5.806;2023-07-20T05:51:59;17.40;99.90
62573;DHT22;48626;51.678;5.806;2023-07-20T05:54:26;17.40;99.90
62573;DHT22;48626;51.678;5.806;2023-07-20T05:56:52;17.30;99.90
62573;DHT22;48626;51.678;5.806;2023-07-20T05:59:18;17.30;99.90
62573;DHT22;48626;51.678;5.806;2023-07-20T06:01:46;17.30;99.90
62573;DHT22;48626;51.678;5.806;2023-07-20T06:04:14;17.50;99.90
62573;DHT22;48626;51.678;5.806;2023-07-20T06:06:40;17.60;99.90
62573;DHT22;48626;51.678;5.806;2023-07-20T06:09:05;17.70;99.90
62573;DHT22;48626;51.678;5.806;2023-07-20T06:11:35;17.90;99.90
62573;DHT22;48626;51.678;5.806;2023-07-20T06:14:01;17.90;99.90
62573;DHT22;48626;51.678;5.806;2023-07-20T06:16:27;18.00;99.90
62573;DHT22;48626;51.678;5.806;2023-07-20T06:18:52;18.00;99.90
62573;DHT22;48626;51.678;5.806;2023-07-20T06:21:18;18.00;99.90
62573;DHT22;48626;51.678;5.806;2023-07-20T06:23:44;17.80;99.90
62573;DHT22;48626;51.678;5.806;2023-07-20T06:26:09;17.70;99.90
62573;DHT22;48626;51.678;5.806;2023-07-20T06:28:35;17.70;99.90
62573;DHT22;48626;51.678;5.806;2023-07-20T06:31:02;17.70;99.90
62573;DHT22;48626;51.678;5.806;2023-07-20T06:33:29;17.70;99.90
62573;DHT22;48626;51.678;5.806;2023-07-20T06:35:55;17.70;99.90
62573;DHT22;48626;51.678;5.806;2023-07-20T06:38:22;17.80;99.90
62573;DHT22;48626;51.678;5.806;2023-07-20T06:40:49;17.80;99.90
62573;DHT22;48626;51.678;5.806;2023-07-20T06:43:15;17.80;99.90
62573;DHT22;48626;51.678;5.806;2023-07-20T06:45:41;17.90;99.90
62573;DHT22;48626;51.678;5.806;2023-07-20T06:48:07;17.80;99.90
62573;DHT22;48626;51.678;5.806;2023-07-20T06:50:32;17.80;99.90
62573;DHT22;48626;51.678;5.806;2023-07-20T06:52:58;17.90;99.90
62573;DHT22;48626;51.678;5.806;2023-07-20T06:55:25;18.00;99.90
62573;DHT22;48626;51.678;5.806;2023-07-20T06:57:51;18.10;99.90
62573;DHT22;48626;51.678;5.806;2023-07-20T07:00:17;18.10;99.90
62573;DHT22;48626;51.678;5.806;2023-07-20T07:02:43;18.10;99.90
62573;DHT22;48626;51.678;5.806;2023-07-20T07:05:09;18.20;99.90
62573;DHT22;48626;51.678;5.806;2023-07-20T07:07:34;18.30;99.90
62573;DHT22;48626;51.678;5.806;2023-07-20T07:10:01;18.40;99.90
62573;DHT22;48626;51.678;5.806;2023-07-20T07:12:30;18.40;99.90
62573;DHT22;48626;51.678;5.806;2023-07-20T07:14:55;18.50;99.90
62573;DHT22;48626;51.678;5.806;2023-07-20T07:17:21;18.50;99.90
62573;DHT22;48626;51.678;5.806;2023-07-20T07:19:46;18.60;99.90
62573;DHT22;48626;51.678;5.806;2023-07-20T07:22:12;18.80;99.90
62573;DHT22;48626;51.678;5.806;2023-07-20T07:24:39;18.90;99.90
62573;DHT22;48626;51.678;5.806;2023-07-20T07:27:08;19.10;99.90
62573;DHT22;48626;51.678;5.806;2023-07-20T07:29:33;19.30;99.90
62573;DHT22;48626;51.678;5.806;2023-07-20T07:31:59;19.30;99.90
62573;DHT22;48626;51.678;5.806;2023-07-20T07:34:25;19.40;99.90
62573;DHT22;48626;51.678;5.806;2023-07-20T07:36:51;19.20;99.90
62573;DHT22;48626;51.678;5.806;2023-07-20T07:39:17;19.20;99.90
62573;DHT22;48626;51.678;5.806;2023-07-20T07:41:43;19.30;99.90
62573;DHT22;48626;51.678;5.806;2023-07-20T07:44:08;19.40;99.90
62573;DHT22;48626;51.678;5.806;2023-07-20T07:46:34;19.60;99.90
62573;DHT22;48626;51.678;5.806;2023-07-20T07:48:59;19.80;99.90
62573;DHT22;48626;51.678;5.806;2023-07-20T07:51:25;20.00;99.90
62573;DHT22;48626;51.678;5.806;2023-07-20T07:53:52;20.20;99.90
62573;DHT22;48626;51.678;5.806;2023-07-20T07:56:18;20.30;99.90
62573;DHT22;48626;51.678;5.806;2023-07-20T07:58:48;20.50;99.90
62573;DHT22;48626;51.678;5.806;2023-07-20T08:01:14;20.60;99.90
62573;DHT22;48626;51.678;5.806;2023-07-20T08:03:40;20.80;99.90
62573;DHT22;48626;51.678;5.806;2023-07-20T08:06:06;21.00;99.90
62573;DHT22;48626;51.678;5.806;2023-07-20T08:08:32;21.20;99.90
62573;DHT22;48626;51.678;5.806;2023-07-20T08:10:58;21.20;99.90
62573;DHT22;48626;51.678;5.806;2023-07-20T08:13:23;21.20;99.90
62573;DHT22;48626;51.678;5.806;2023-07-20T08:15:51;21.20;99.90
62573;DHT22;48626;51.678;5.806;2023-07-20T08:18:19;21.50;99.90
62573;DHT22;48626;51.678;5.806;2023-07-20T08:20:45;21.50;99.90
62573;DHT22;48626;51.678;5.806;2023-07-20T08:23:12;21.50;99.90
62573;DHT22;48626;51.678;5.806;2023-07-20T08:25:38;21.40;99.90
62573;DHT22;48626;51.678;5.806;2023-07-20T08:28:07;21.30;99.90
62573;DHT22;48626;51.678;5.806;2023-07-20T08:30:43;21.20;99.90
62573;DHT22;48626;51.678;5.806;2023-07-20T08:33:10;21.30;99.90
62573;DHT22;48626;51.678;5.806;2023-07-20T08:35:36;21.40;99.90
62573;DHT22;48626;51.678;5.806;2023-07-20T08:38:02;21.40;99.90
62573;DHT22;48626;51.678;5.806;2023-07-20T08:40:39;21.40;99.90
62573;DHT22;48626;51.678;5.806;2023-07-20T08:43:05;21.50;99.90
62573;DHT22;48626;51.678;5.806;2023-07-20T08:45:33;21.50;99.90
62573;DHT22;48626;51.678;5.806;2023-07-20T08:48:00;21.50;99.90
62573;DHT22;48626;51.678;5.806;2023-07-20T08:50:29;21.40;99.90
62573;DHT22;48626;51.678;5.806;2023-07-20T08:52:57;21.50;99.90
62573;DHT22;48626;51.678;5.806;2023-07-20T08:55:24;21.50;99.90
62573;DHT22;48626;51.678;5.806;2023-07-20T08:57:57;21.60;99.90
62573;DHT22;48626;51.678;5.806;2023-07-20T09:00:24;21.80;99.90
62573;DHT22;48626;51.678;5.806;2023-07-20T09:02:52;21.90;99.90
62573;DHT22;48626;51.678;5.806;2023-07-20T09:05:22;22.00;99.90
62573;DHT22;48626;51.678;5.806;2023-07-20T09:07:48;22.20;99.90
62573;DHT22;48626;51.678;5.806;2023-07-20T09:10:14;22.40;99.90
62573;DHT22;48626;51.678;5.806;2023-07-20T09:12:41;22.60;99.90
62573;DHT22;48626;51.678;5.806;2023-07-20T09:15:09;22.70;99.90
62573;DHT22;48626;51.678;5.806;2023-07-20T09:17:35;22.90;99.90
62573;DHT22;48626;51.678;5.806;2023-07-20T09:20:05;22.90;99.90
62573;DHT22;48626;51.678;5.806;2023-07-20T09:22:34;23.00;99.90
62573;DHT22;48626;51.678;5.806;2023-07-20T09:25:00;23.10;99.90
62573;DHT22;48626;51.678;5.806;2023-07-20T09:27:38;23.40;99.90
62573;DHT22;48626;51.678;5.806;2023-07-20T09:30:05;23.60;99.90
62573;DHT22;48626;51.678;5.806;2023-07-20T09:32:38;23.70;99.90
62573;DHT22;48626;51.678;5.806;2023-07-20T09:35:05;23.80;99.90
62573;DHT22;48626;51.678;5.806;2023-07-20T09:37:33;23.90;99.90
62573;DHT22;48626;51.678;5.806;2023-07-20T09:39:59;23.90;99.90
62573;DHT22;48626;51.678;5.806;2023-07-20T09:42:26;23.70;99.90
62573;DHT22;48626;51.678;5.806;2023-07-20T09:44:52;23.50;99.90
62573;DHT22;48626;51.678;5.806;2023-07-20T09:47:22;23.10;99.90
62573;DHT22;48626;51.678;5.806;2023-07-20T09:49:48;22.90;99.90
62573;DHT22;48626;51.678;5.806;2023-07-20T09:52:15;22.70;99.90
62573;DHT22;48626;51.678;5.806;2023-07-20T09:54:44;22.50;99.90
62573;DHT22;48626;51.678;5.806;2023-07-20T09:57:11;22.40;99.90
62573;DHT22;48626;51.678;5.806;2023-07-20T09:59:39;22.20;99.90
62573;DHT22;48626;51.678;5.806;2023-07-20T10:02:11;22.00;99.90
62573;DHT22;48626;51.678;5.806;2023-07-20T10:04:41;21.90;99.90
62573;DHT22;48626;51.678;5.806;2023-07-20T10:07:10;21.80;99.90
62573;DHT22;48626;51.678;5.806;2023-07-20T10:09:39;21.70;99.90
62573;DHT22;48626;51.678;5.806;2023-07-20T10:12:07;21.60;99.90
62573;DHT22;48626;51.678;5.806;2023-07-20T10:14:38;21.60;99.90
62573;DHT22;48626;51.678;5.806;2023-07-20T10:17:07;21.50;99.90
62573;DHT22;48626;51.678;5.806;2023-07-20T10:22:12;21.70;99.90
62573;DHT22;48626;51.678;5.806;2023-07-20T10:24:39;21.80;99.90
62573;DHT22;48626;51.678;5.806;2023-07-20T10:27:07;21.90;99.90
62573;DHT22;48626;51.678;5.806;2023-07-20T10:29:32;22.20;99.90
62573;DHT22;48626;51.678;5.806;2023-07-20T10:31:59;22.50;99.90
62573;DHT22;48626;51.678;5.806;2023-07-20T10:34:25;22.70;99.90
62573;DHT22;48626;51.678;5.806;2023-07-20T10:36:51;23.00;99.90
62573;DHT22;48626;51.678;5.806;2023-07-20T10:39:31;23.60;99.90
62573;DHT22;48626;51.678;5.806;2023-07-20T10:42:06;24.10;99.90
62573;DHT22;48626;51.678;5.806;2023-07-20T10:44:33;24.70;99.90
62573;DHT22;48626;51.678;5.806;2023-07-20T10:47:00;25.10;99.90
62573;DHT22;48626;51.678;5.806;2023-07-20T10:49:26;25.50;99.90
62573;DHT22;48626;51.678;5.806;2023-07-20T10:52:00;25.80;99.90
62573;DHT22;48626;51.678;5.806;2023-07-20T10:56:56;26.80;99.90
62573;DHT22;48626;51.678;5.806;2023-07-20T11:01:57;26.90;99.90
62573;DHT22;48626;51.678;5.806;2023-07-20T11:04:38;26.40;99.90
62573;DHT22;48626;51.678;5.806;2023-07-20T11:07:05;25.90;99.90
62573;DHT22;48626;51.678;5.806;2023-07-20T11:09:35;25.50;99.90
62573;DHT22;48626;51.678;5.806;2023-07-20T11:12:15;25.20;99.90
62573;DHT22;48626;51.678;5.806;2023-07-20T11:14:53;25.20;99.90
62573;DHT22;48626;51.678;5.806;2023-07-20T11:17:20;25.80;99.90
62573;DHT22;48626;51.678;5.806;2023-07-20T11:19:55;26.70;99.90
62573;DHT22;48626;51.678;5.806;2023-07-20T11:22:22;27.80;99.90
62573;DHT22;48626;51.678;5.806;2023-07-20T11:24:48;28.50;99.90
62573;DHT22;48626;51.678;5.806;2023-07-20T11:27:16;28.90;99.90
62573;DHT22;48626;51.678;5.806;2023-07-20T11:29:47;28.80;99.90
62573;DHT22;48626;51.678;5.806;2023-07-20T11:32:23;29.00;99.90
62573;DHT22;48626;51.678;5.806;2023-07-20T11:34:49;28.90;99.90
62573;DHT22;48626;51.678;5.806;2023-07-20T11:37:16;28.70;99.90
62573;DHT22;48626;51.678;5.806;2023-07-20T11:39:42;28.30;99.90
62573;DHT22;48626;51.678;5.806;2023-07-20T11:42:08;27.70;99.90
62573;DHT22;48626;51.678;5.806;2023-07-20T11:44:34;27.30;99.90
62573;DHT22;48626;51.678;5.806;2023-07-20T11:47:08;26.80;99.90
62573;DHT22;48626;51.678;5.806;2023-07-20T11:49:35;26.40;99.90
62573;DHT22;48626;51.678;5.806;2023-07-20T11:52:02;26.10;99.90
62573;DHT22;48626;51.678;5.806;2023-07-20T11:54:28;26.20;99.90
62573;DHT22;48626;51.678;5.806;2023-07-20T11:56:54;27.00;99.90
62573;DHT22;48626;51.678;5.806;2023-07-20T11:59:23;27.90;99.90
62573;DHT22;48626;51.678;5.806;2023-07-20T12:01:49;28.60;99.90
62573;DHT22;48626;51.678;5.806;2023-07-20T12:04:15;29.20;99.90
62573;DHT22;48626;51.678;5.806;2023-07-20T12:06:40;30.00;99.90
62573;DHT22;48626;51.678;5.806;2023-07-20T12:09:06;30.40;99.90
62573;DHT22;48626;51.678;5.806;2023-07-20T12:11:38;30.10;99.90
62573;DHT22;48626;51.678;5.806;2023-07-20T12:14:07;29.50;99.90
62573;DHT22;48626;51.678;5.806;2023-07-20T12:16:33;29.30;99.90
62573;DHT22;48626;51.678;5.806;2023-07-20T12:19:12;30.00;99.90
62573;DHT22;48626;51.678;5.806;2023-07-20T12:21:41;31.00;99.90
62573;DHT22;48626;51.678;5.806;2023-07-20T12:24:08;31.90;99.90
62573;DHT22;48626;51.678;5.806;2023-07-20T12:26:37;32.60;99.90
62573;DHT22;48626;51.678;5.806;2023-07-20T12:29:03;33.20;99.90
62573;DHT22;48626;51.678;5.806;2023-07-20T12:31:29;33.70;99.90
62573;DHT22;48626;51.678;5.806;2023-07-20T12:33:57;34.20;99.90
62573;DHT22;48626;51.678;5.806;2023-07-20T12:36:24;33.40;99.90
62573;DHT22;48626;51.678;5.806;2023-07-20T12:38:49;32.30;99.90
62573;DHT22;48626;51.678;5.806;2023-07-20T12:41:15;31.40;99.90
62573;DHT22;48626;51.678;5.806;2023-07-20T12:43:42;30.60;99.90
62573;DHT22;48626;51.678;5.806;2023-07-20T12:46:08;29.90;99.90
62573;DHT22;48626;51.678;5.806;2023-07-20T12:48:35;29.40;99.90
62573;DHT22;48626;51.678;5.806;2023-07-20T12:51:03;29.10;99.90
62573;DHT22;48626;51.678;5.806;2023-07-20T12:53:29;29.30;99.90
62573;DHT22;48626;51.678;5.806;2023-07-20T12:55:54;29.70;99.90
62573;DHT22;48626;51.678;5.806;2023-07-20T12:58:20;29.60;99.90
62573;DHT22;48626;51.678;5.806;2023-07-20T13:00:46;29.70;99.90
62573;DHT22;48626;51.678;5.806;2023-07-20T13:03:11;30.70;99.90
62573;DHT22;48626;51.678;5.806;2023-07-20T13:05:37;32.20;99.90
62573;DHT22;48626;51.678;5.806;2023-07-20T13:08:03;32.10;99.90
62573;DHT22;48626;51.678;5.806;2023-07-20T13:10:29;31.40;99.90
62573;DHT22;48626;51.678;5.806;2023-07-20T13:12:55;30.60;99.90
62573;DHT22;48626;51.678;5.806;2023-07-20T13:15:21;29.80;99.90
62573;DHT22;48626;51.678;5.806;2023-07-20T13:17:46;29.10;99.90
62573;DHT22;48626;51.678;5.806;2023-07-20T13:20:12;28.40;99.90
62573;DHT22;48626;51.678;5.806;2023-07-20T13:22:39;27.90;99.90
62573;DHT22;48626;51.678;5.806;2023-07-20T13:25:06;27.40;99.90
62573;DHT22;48626;51.678;5.806;2023-07-20T13:27:32;27.00;99.90
62573;DHT22;48626;51.678;5.806;2023-07-20T13:29:59;26.60;99.90
62573;DHT22;48626;51.678;5.806;2023-07-20T13:32:26;26.20;99.90
62573;DHT22;48626;51.678;5.806;2023-07-20T13:34:52;25.90;99.90
62573;DHT22;48626;51.678;5.806;2023-07-20T13:37:18;25.70;99.90
62573;DHT22;48626;51.678;5.806;2023-07-20T13:39:44;25.40;99.90
62573;DHT22;48626;51.678;5.806;2023-07-20T13:42:10;25.20;99.90
62573;DHT22;48626;51.678;5.806;2023-07-20T13:44:37;25.10;99.90
62573;DHT22;48626;51.678;5.806;2023-07-20T13:47:04;24.90;99.90
62573;DHT22;48626;51.678;5.806;2023-07-20T13:49:32;24.90;99.90
62573;DHT22;48626;51.678;5.806;2023-07-20T13:51:58;24.90;99.90
62573;DHT22;48626;51.678;5.806;2023-07-20T13:54:25;24.90;99.90
62573;DHT22;48626;51.678;5.806;2023-07-20T13:56:51;24.80;99.90
62573;DHT22;48626;51.678;5.806;2023-07-20T13:59:19;24.90;99.90
62573;DHT22;48626;51.678;5.806;2023-07-20T14:01:45;24.80;99.90
62573;DHT22;48626;51.678;5.806;2023-07-20T14:04:11;24.90;99.90
62573;DHT22;48626;51.678;5.806;2023-07-20T14:06:37;24.90;99.90
62573;DHT22;48626;51.678;5.806;2023-07-20T14:09:03;24.90;99.90
62573;DHT22;48626;51.678;5.806;2023-07-20T14:11:29;25.10;99.90
62573;DHT22;48626;51.678;5.806;2023-07-20T14:13:54;25.30;99.90
62573;DHT22;48626;51.678;5.806;2023-07-20T14:16:23;25.70;99.90
62573;DHT22;48626;51.678;5.806;2023-07-20T14:18:49;26.30;99.90
62573;DHT22;48626;51.678;5.806;2023-07-20T14:21:19;26.90;99.90
62573;DHT22;48626;51.678;5.806;2023-07-20T14:23:49;28.30;99.90
62573;DHT22;48626;51.678;5.806;2023-07-20T14:26:15;30.10;99.90
62573;DHT22;48626;51.678;5.806;2023-07-20T14:28:41;31.50;99.90
62573;DHT22;48626;51.678;5.806;2023-07-20T14:31:07;32.60;99.90
62573;DHT22;48626;51.678;5.806;2023-07-20T14:33:33;33.30;99.90
62573;DHT22;48626;51.678;5.806;2023-07-20T14:35:59;33.70;99.90
62573;DHT22;48626;51.678;5.806;2023-07-20T14:38:30;34.20;99.90
62573;DHT22;48626;51.678;5.806;2023-07-20T14:40:56;34.60;99.90
62573;DHT22;48626;51.678;5.806;2023-07-20T14:43:22;35.00;99.90
62573;DHT22;48626;51.678;5.806;2023-07-20T14:45:48;35.50;99.90
62573;DHT22;48626;51.678;5.806;2023-07-20T14:48:13;36.10;99.90
62573;DHT22;48626;51.678;5.806;2023-07-20T14:50:39;36.60;99.90
62573;DHT22;48626;51.678;5.806;2023-07-20T14:53:05;36.90;99.90
62573;DHT22;48626;51.678;5.806;2023-07-20T14:55:31;37.20;99.90
62573;DHT22;48626;51.678;5.806;2023-07-20T14:57:56;37.50;99.90
62573;DHT22;48626;51.678;5.806;2023-07-20T15:00:22;37.90;99.90
62573;DHT22;48626;51.678;5.806;2023-07-20T15:02:47;37.70;99.90
62573;DHT22;48626;51.678;5.806;2023-07-20T15:05:20;38.20;99.90
62573;DHT22;48626;51.678;5.806;2023-07-20T15:07:47;37.80;99.90
62573;DHT22;48626;51.678;5.806;2023-07-20T15:10:13;37.80;99.90
62573;DHT22;48626;51.678;5.806;2023-07-20T15:12:39;37.30;99.90
62573;DHT22;48626;51.678;5.806;2023-07-20T15:15:07;36.10;99.90
62573;DHT22;48626;51.678;5.806;2023-07-20T15:17:34;34.80;99.90
62573;DHT22;48626;51.678;5.806;2023-07-20T15:20:01;33.60;99.90
62573;DHT22;48626;51.678;5.806;2023-07-20T15:22:30;33.30;99.90
62573;DHT22;48626;51.678;5.806;2023-07-20T15:24:56;33.00;99.90
62573;DHT22;48626;51.678;5.806;2023-07-20T15:27:22;32.50;99.90
62573;DHT22;48626;51.678;5.806;2023-07-20T15:29:50;32.00;99.90
62573;DHT22;48626;51.678;5.806;2023-07-20T15:32:18;32.10;99.90
62573;DHT22;48626;51.678;5.806;2023-07-20T15:34:44;32.70;99.90
62573;DHT22;48626;51.678;5.806;2023-07-20T15:37:11;32.20;99.90
62573;DHT22;48626;51.678;5.806;2023-07-20T15:39:37;31.40;99.90
62573;DHT22;48626;51.678;5.806;2023-07-20T15:42:03;30.60;99.90
62573;DHT22;48626;51.678;5.806;2023-07-20T15:44:29;29.90;99.90
62573;DHT22;48626;51.678;5.806;2023-07-20T15:46:55;29.30;99.90